sensor_id;sensor_type;location;lat;lon;timestamp;P1;durP1;ratioP1;P2;durP2;ratioP2
21170;SDS011;10743;52.160;20.910;2023-08-31T00:02:04;9.25;;;4.28;;
21170;SDS011;10743;52.160;20.910;2023-08-31T00:04:32;12.25;;;4.07;;
21170;SDS011;10743;52.160;20.910;2023-08-31T00:07:00;8.43;;;4.32;;
21170;SDS011;10743;52.160;20.910;2023-08-31T00:09:27;8.48;;;4.30;;
21170;SDS011;10743;52.160;20.910;2023-08-31T00:11:55;7.07;;;4.28;;
21170;SDS011;10743;52.160;20.910;2023-08-31T00:14:23;9.85;;;4.10;;
21170;SDS011;10743;52.160;20.910;2023-08-31T00:16:53;10.45;;;4.43;;
21170;SDS011;10743;52.160;20.910;2023-08-31T00:19:20;8.38;;;4.20;;
21170;SDS011;10743;52.160;20.910;2023-08-31T00:21:47;9.75;;;4.47;;
21170;SDS011;10743;52.160;20.910;2023-08-31T00:24:15;6.28;;;3.50;;
21170;SDS011;10743;52.160;20.910;2023-08-31T00:26:42;9.00;;;4.22;;
21170;SDS011;10743;52.160;20.910;2023-08-31T00:29:10;7.90;;;4.03;;
21170;SDS011;10743;52.160;20.910;2023-08-31T00:31:37;9.25;;;3.75;;
21170;SDS011;10743;52.160;20.910;2023-08-31T00:34:05;7.97;;;4.47;;
21170;SDS011;10743;52.160;20.910;2023-08-31T00:36:33;9.60;;;4.00;;
21170;SDS011;10743;52.160;20.910;2023-08-31T00:39:03;6.50;;;3.83;;
21170;SDS011;10743;52.160;20.910;2023-08-31T00:41:38;8.60;;;3.85;;
21170;SDS011;10743;52.160;20.910;2023-08-31T00:44:05;10.57;;;4.28;;
21170;SDS011;10743;52.160;20.910;2023-08-31T00:46:33;9.25;;;3.67;;
21170;SDS011;10743;52.160;20.910;2023-08-31T00:49:01;6.68;;;3.85;;
21170;SDS011;10743;52.160;20.910;2023-08-31T00:51:30;7.47;;;3.95;;
21170;SDS011;10743;52.160;20.910;2023-08-31T00:53:58;4.35;;;3.10;;
21170;SDS011;10743;52.160;20.910;2023-08-31T00:56:26;6.88;;;4.00;;
21170;SDS011;10743;52.160;20.910;2023-08-31T00:58:53;5.90;;;3.88;;
21170;SDS011;10743;52.160;20.910;2023-08-31T01:01:30;6.63;;;3.58;;
21170;SDS011;10743;52.160;20.910;2023-08-31T01:09:50;5.60;;;3.42;;
21170;SDS011;10743;52.160;20.910;2023-08-31T01:15:41;6.05;;;3.10;;
21170;SDS011;10743;52.160;20.910;2023-08-31T01:18:14;7.63;;;3.67;;
21170;SDS011;10743;52.160;20.910;2023-08-31T01:20:45;11.02;;;3.85;;
21170;SDS011;10743;52.160;20.910;2023-08-31T01:23:54;8.05;;;3.63;;
21170;SDS011;10743;52.160;20.910;2023-08-31T01:26:25;9.75;;;3.70;;
21170;SDS011;10743;52.160;20.910;2023-08-31T01:28:52;6.78;;;3.83;;
21170;SDS011;10743;52.160;20.910;2023-08-31T01:31:21;8.05;;;3.47;;
21170;SDS011;10743;52.160;20.910;2023-08-31T01:33:49;8.70;;;3.53;;
21170;SDS011;10743;52.160;20.910;2023-08-31T01:38:55;8.80;;;3.70;;
21170;SDS011;10743;52.160;20.910;2023-08-31T01:41:34;9.18;;;4.00;;
21170;SDS011;10743;52.160;20.910;2023-08-31T01:44:02;6.65;;;3.80;;
21170;SDS011;10743;52.160;20.910;2023-08-31T01:46:32;8.43;;;4.18;;
21170;SDS011;10743;52.160;20.910;2023-08-31T01:48:59;6.57;;;3.92;;
21170;SDS011;10743;52.160;20.910;2023-08-31T01:51:28;5.63;;;3.67;;
21170;SDS011;10743;52.160;20.910;2023-08-31T01:53:55;10.77;;;4.40;;
21170;SDS011;10743;52.160;20.910;2023-08-31T01:56:24;8.43;;;3.97;;
21170;SDS011;10743;52.160;20.910;2023-08-31T01:58:52;7.45;;;3.67;;
21170;SDS011;10743;52.160;20.910;2023-08-31T02:01:19;9.02;;;4.25;;
21170;SDS011;10743;52.160;20.910;2023-08-31T02:03:46;4.55;;;3.40;;
21170;SDS011;10743;52.160;20.910;2023-08-31T02:06:13;6.53;;;3.97;;
21170;SDS011;10743;52.160;20.910;2023-08-31T02:08:40;6.47;;;3.78;;
21170;SDS011;10743;52.160;20.910;2023-08-31T02:11:10;14.50;;;3.80;;
21170;SDS011;10743;52.160;20.910;2023-08-31T02:13:37;10.18;;;3.95;;
21170;SDS011;10743;52.160;20.910;2023-08-31T02:16:04;9.90;;;4.18;;
21170;SDS011;10743;52.160;20.910;2023-08-31T02:18:31;8.35;;;3.67;;
21170;SDS011;10743;52.160;20.910;2023-08-31T02:20:58;5.97;;;3.53;;
21170;SDS011;10743;52.160;20.910;2023-08-31T02:23:25;9.50;;;3.72;;
21170;SDS011;10743;52.160;20.910;2023-08-31T02:25:53;6.78;;;3.72;;
21170;SDS011;10743;52.160;20.910;2023-08-31T02:28:20;6.18;;;3.67;;
21170;SDS011;10743;52.160;20.910;2023-08-31T02:30:56;5.75;;;3.70;;
21170;SDS011;10743;52.160;20.910;2023-08-31T02:33:31;5.75;;;3.40;;
21170;SDS011;10743;52.160;20.910;2023-08-31T02:35:59;5.95;;;3.60;;
21170;SDS011;10743;52.160;20.910;2023-08-31T02:38:26;6.82;;;3.83;;
21170;SDS011;10743;52.160;20.910;2023-08-31T02:40:53;6.60;;;3.35;;
21170;SDS011;10743;52.160;20.910;2023-08-31T02:43:20;6.53;;;3.53;;
21170;SDS011;10743;52.160;20.910;2023-08-31T02:45:48;5.05;;;3.35;;
21170;SDS011;10743;52.160;20.910;2023-08-31T02:48:15;8.82;;;3.92;;
21170;SDS011;10743;52.160;20.910;2023-08-31T02:50:42;6.97;;;3.67;;
21170;SDS011;10743;52.160;20.910;2023-08-31T02:53:09;6.63;;;3.67;;
21170;SDS011;10743;52.160;20.910;2023-08-31T02:55:37;8.65;;;3.60;;
21170;SDS011;10743;52.160;20.910;2023-08-31T02:58:04;7.70;;;3.42;;
21170;SDS011;10743;52.160;20.910;2023-08-31T03:00:31;10.68;;;3.85;;
21170;SDS011;10743;52.160;20.910;2023-08-31T03:02:59;9.68;;;3.95;;
21170;SDS011;10743;52.160;20.910;2023-08-31T03:05:27;6.68;;;3.45;;
21170;SDS011;10743;52.160;20.910;2023-08-31T03:07:54;9.77;;;3.47;;
21170;SDS011;10743;52.160;20.910;2023-08-31T03:10:23;9.13;;;3.70;;
21170;SDS011;10743;52.160;20.910;2023-08-31T03:12:50;7.65;;;3.42;;
21170;SDS011;10743;52.160;20.910;2023-08-31T03:15:18;8.57;;;3.85;;
21170;SDS011;10743;52.160;20.910;2023-08-31T03:17:45;7.85;;;3.80;;
21170;SDS011;10743;52.160;20.910;2023-08-31T03:20:12;10.48;;;4.15;;
21170;SDS011;10743;52.160;20.910;2023-08-31T03:22:39;9.65;;;3.63;;
21170;SDS011;10743;52.160;20.910;2023-08-31T03:25:07;9.35;;;3.75;;
21170;SDS011;10743;52.160;20.910;2023-08-31T03:27:34;6.88;;;3.80;;
21170;SDS011;10743;52.160;20.910;2023-08-31T03:30:02;5.85;;;3.30;;
21170;SDS011;10743;52.160;20.910;2023-08-31T03:32:30;7.10;;;3.45;;
21170;SDS011;10743;52.160;20.910;2023-08-31T03:34:57;8.93;;;3.42;;
21170;SDS011;10743;52.160;20.910;2023-08-31T03:37:26;6.70;;;3.38;;
21170;SDS011;10743;52.160;20.910;2023-08-31T03:39:55;8.68;;;3.30;;
21170;SDS011;10743;52.160;20.910;2023-08-31T03:42:22;7.25;;;3.20;;
21170;SDS011;10743;52.160;20.910;2023-08-31T03:44:49;7.72;;;3.38;;
21170;SDS011;10743;52.160;20.910;2023-08-31T03:47:16;7.60;;;3.55;;
21170;SDS011;10743;52.160;20.910;2023-08-31T03:49:43;10.18;;;3.33;;
21170;SDS011;10743;52.160;20.910;2023-08-31T03:52:13;7.90;;;3.20;;
21170;SDS011;10743;52.160;20.910;2023-08-31T03:54:41;6.88;;;3.33;;
21170;SDS011;10743;52.160;20.910;2023-08-31T03:57:08;8.13;;;3.10;;
21170;SDS011;10743;52.160;20.910;2023-08-31T03:59:35;6.65;;;2.75;;
21170;SDS011;10743;52.160;20.910;2023-08-31T04:02:02;8.25;;;2.97;;
21170;SDS011;10743;52.160;20.910;2023-08-31T04:04:30;6.65;;;3.15;;
21170;SDS011;10743;52.160;20.910;2023-08-31T04:06:57;8.48;;;3.30;;
21170;SDS011;10743;52.160;20.910;2023-08-31T04:09:25;7.95;;;3.22;;
21170;SDS011;10743;52.160;20.910;2023-08-31T04:11:52;6.20;;;2.92;;
21170;SDS011;10743;52.160;20.910;2023-08-31T04:14:19;6.28;;;3.33;;
21170;SDS011;10743;52.160;20.910;2023-08-31T04:16:46;10.75;;;2.97;;
21170;SDS011;10743;52.160;20.910;2023-08-31T04:19:16;5.88;;;2.80;;
21170;SDS011;10743;52.160;20.910;2023-08-31T04:21:43;8.07;;;3.00;;
21170;SDS011;10743;52.160;20.910;2023-08-31T04:24:10;7.75;;;3.17;;
21170;SDS011;10743;52.160;20.910;2023-08-31T04:26:37;7.40;;;2.92;;
21170;SDS011;10743;52.160;20.910;2023-08-31T04:29:04;10.43;;;2.90;;
21170;SDS011;10743;52.160;20.910;2023-08-31T04:31:32;5.43;;;3.05;;
21170;SDS011;10743;52.160;20.910;2023-08-31T04:33:59;9.27;;;2.80;;
21170;SDS011;10743;52.160;20.910;2023-08-31T04:36:26;4.88;;;2.88;;
21170;SDS011;10743;52.160;20.910;2023-08-31T04:38:53;9.77;;;3.08;;
21170;SDS011;10743;52.160;20.910;2023-08-31T04:41:20;13.25;;;4.05;;
21170;SDS011;10743;52.160;20.910;2023-08-31T04:43:47;8.20;;;2.90;;
21170;SDS011;10743;52.160;20.910;2023-08-31T04:46:14;9.38;;;3.10;;
21170;SDS011;10743;52.160;20.910;2023-08-31T04:48:42;10.88;;;2.90;;
21170;SDS011;10743;52.160;20.910;2023-08-31T04:51:09;9.20;;;3.28;;
21170;SDS011;10743;52.160;20.910;2023-08-31T04:54:01;7.43;;;2.97;;
21170;SDS011;10743;52.160;20.910;2023-08-31T04:56:30;9.20;;;3.00;;
21170;SDS011;10743;52.160;20.910;2023-08-31T04:58:59;6.47;;;2.85;;
21170;SDS011;10743;52.160;20.910;2023-08-31T05:01:27;9.23;;;3.25;;
21170;SDS011;10743;52.160;20.910;2023-08-31T05:03:54;11.32;;;3.60;;
21170;SDS011;10743;52.160;20.910;2023-08-31T05:06:21;5.82;;;3.15;;
21170;SDS011;10743;52.160;20.910;2023-08-31T05:08:49;11.57;;;2.95;;
21170;SDS011;10743;52.160;20.910;2023-08-31T05:11:16;7.75;;;3.55;;
21170;SDS011;10743;52.160;20.910;2023-08-31T05:13:43;11.68;;;3.47;;
21170;SDS011;10743;52.160;20.910;2023-08-31T05:16:10;10.52;;;2.97;;
21170;SDS011;10743;52.160;20.910;2023-08-31T05:18:38;7.70;;;2.88;;
21170;SDS011;10743;52.160;20.910;2023-08-31T05:21:06;6.65;;;2.72;;
21170;SDS011;10743;52.160;20.910;2023-08-31T05:23:34;9.15;;;3.13;;
21170;SDS011;10743;52.160;20.910;2023-08-31T05:26:03;8.20;;;2.90;;
21170;SDS011;10743;52.160;20.910;2023-08-31T05:28:31;8.82;;;3.05;;
21170;SDS011;10743;52.160;20.910;2023-08-31T05:30:59;5.22;;;3.05;;
21170;SDS011;10743;52.160;20.910;2023-08-31T05:33:29;8.48;;;3.03;;
21170;SDS011;10743;52.160;20.910;2023-08-31T05:36:01;12.68;;;3.17;;
21170;SDS011;10743;52.160;20.910;2023-08-31T05:38:30;9.95;;;3.40;;
21170;SDS011;10743;52.160;20.910;2023-08-31T05:41:04;8.20;;;2.85;;
21170;SDS011;10743;52.160;20.910;2023-08-31T05:43:36;9.15;;;3.40;;
21170;SDS011;10743;52.160;20.910;2023-08-31T05:46:06;12.40;;;3.22;;
21170;SDS011;10743;52.160;20.910;2023-08-31T05:48:35;10.68;;;3.90;;
21170;SDS011;10743;52.160;20.910;2023-08-31T05:51:03;6.57;;;2.85;;
21170;SDS011;10743;52.160;20.910;2023-08-31T05:53:30;10.63;;;3.38;;
21170;SDS011;10743;52.160;20.910;2023-08-31T05:55:58;9.02;;;2.72;;
21170;SDS011;10743;52.160;20.910;2023-08-31T05:58:32;7.07;;;2.55;;
21170;SDS011;10743;52.160;20.910;2023-08-31T06:01:00;7.10;;;2.53;;
21170;SDS011;10743;52.160;20.910;2023-08-31T06:03:29;6.03;;;2.25;;
21170;SDS011;10743;52.160;20.910;2023-08-31T06:05:57;7.80;;;2.58;;
21170;SDS011;10743;52.160;20.910;2023-08-31T06:08:26;7.30;;;2.00;;
21170;SDS011;10743;52.160;20.910;2023-08-31T06:10:53;11.50;;;2.80;;
21170;SDS011;10743;52.160;20.910;2023-08-31T06:13:20;14.43;;;2.45;;
21170;SDS011;10743;52.160;20.910;2023-08-31T06:15:47;4.78;;;2.13;;
21170;SDS011;10743;52.160;20.910;2023-08-31T06:18:14;10.73;;;2.90;;
21170;SDS011;10743;52.160;20.910;2023-08-31T06:20:41;9.45;;;2.65;;
21170;SDS011;10743;52.160;20.910;2023-08-31T06:23:09;8.65;;;2.50;;
21170;SDS011;10743;52.160;20.910;2023-08-31T06:25:37;8.30;;;2.55;;
21170;SDS011;10743;52.160;20.910;2023-08-31T06:28:05;4.90;;;2.03;;
21170;SDS011;10743;52.160;20.910;2023-08-31T06:30:35;6.78;;;2.30;;
21170;SDS011;10743;52.160;20.910;2023-08-31T06:33:02;11.20;;;2.78;;
21170;SDS011;10743;52.160;20.910;2023-08-31T06:35:29;8.32;;;2.40;;
21170;SDS011;10743;52.160;20.910;2023-08-31T06:37:57;7.32;;;2.60;;
21170;SDS011;10743;52.160;20.910;2023-08-31T06:40:24;6.75;;;2.38;;
21170;SDS011;10743;52.160;20.910;2023-08-31T06:42:52;5.05;;;2.13;;
21170;SDS011;10743;52.160;20.910;2023-08-31T06:45:19;11.75;;;2.60;;
21170;SDS011;10743;52.160;20.910;2023-08-31T06:47:46;6.45;;;2.17;;
21170;SDS011;10743;52.160;20.910;2023-08-31T06:50:13;11.10;;;2.58;;
21170;SDS011;10743;52.160;20.910;2023-08-31T06:52:40;6.50;;;2.20;;
21170;SDS011;10743;52.160;20.910;2023-08-31T06:55:08;8.02;;;2.50;;
21170;SDS011;10743;52.160;20.910;2023-08-31T06:57:37;6.30;;;2.30;;
21170;SDS011;10743;52.160;20.910;2023-08-31T07:00:04;6.90;;;2.70;;
21170;SDS011;10743;52.160;20.910;2023-08-31T07:02:34;6.82;;;2.47;;
21170;SDS011;10743;52.160;20.910;2023-08-31T07:05:05;9.88;;;2.38;;
21170;SDS011;10743;52.160;20.910;2023-08-31T07:07:33;8.95;;;2.22;;
21170;SDS011;10743;52.160;20.910;2023-08-31T07:10:00;7.00;;;2.30;;
21170;SDS011;10743;52.160;20.910;2023-08-31T07:12:27;7.45;;;1.95;;
21170;SDS011;10743;52.160;20.910;2023-08-31T07:14:54;5.90;;;2.22;;
21170;SDS011;10743;52.160;20.910;2023-08-31T07:17:22;12.15;;;2.67;;
21170;SDS011;10743;52.160;20.910;2023-08-31T07:19:49;4.93;;;1.92;;
21170;SDS011;10743;52.160;20.910;2023-08-31T07:22:16;5.95;;;2.35;;
21170;SDS011;10743;52.160;20.910;2023-08-31T07:24:43;5.72;;;2.33;;
21170;SDS011;10743;52.160;20.910;2023-08-31T07:27:11;5.43;;;1.65;;
21170;SDS011;10743;52.160;20.910;2023-08-31T07:29:38;9.80;;;3.03;;
21170;SDS011;10743;52.160;20.910;2023-08-31T07:32:05;7.28;;;1.95;;
21170;SDS011;10743;52.160;20.910;2023-08-31T07:34:33;5.55;;;2.08;;
21170;SDS011;10743;52.160;20.910;2023-08-31T07:37:00;9.73;;;2.45;;
21170;SDS011;10743;52.160;20.910;2023-08-31T07:39:27;5.15;;;1.58;;
21170;SDS011;10743;52.160;20.910;2023-08-31T07:41:54;5.60;;;2.22;;
21170;SDS011;10743;52.160;20.910;2023-08-31T07:44:21;5.50;;;2.20;;
21170;SDS011;10743;52.160;20.910;2023-08-31T07:46:50;6.47;;;2.10;;
21170;SDS011;10743;52.160;20.910;2023-08-31T07:49:17;2.95;;;1.73;;
21170;SDS011;10743;52.160;20.910;2023-08-31T07:51:44;3.47;;;1.80;;
21170;SDS011;10743;52.160;20.910;2023-08-31T07:54:11;4.97;;;1.85;;
21170;SDS011;10743;52.160;20.910;2023-08-31T07:56:48;4.80;;;1.63;;
21170;SDS011;10743;52.160;20.910;2023-08-31T07:59:16;6.90;;;1.75;;
21170;SDS011;10743;52.160;20.910;2023-08-31T08:01:44;5.70;;;1.65;;
21170;SDS011;10743;52.160;20.910;2023-08-31T08:04:12;5.93;;;1.90;;
21170;SDS011;10743;52.160;20.910;2023-08-31T08:06:40;6.10;;;1.95;;
21170;SDS011;10743;52.160;20.910;2023-08-31T08:09:07;7.13;;;2.05;;
21170;SDS011;10743;52.160;20.910;2023-08-31T08:11:34;6.03;;;1.92;;
21170;SDS011;10743;52.160;20.910;2023-08-31T08:14:02;5.97;;;1.90;;
21170;SDS011;10743;52.160;20.910;2023-08-31T08:16:29;6.95;;;1.90;;
21170;SDS011;10743;52.160;20.910;2023-08-31T08:18:56;13.15;;;2.40;;
21170;SDS011;10743;52.160;20.910;2023-08-31T08:21:23;7.03;;;1.90;;
21170;SDS011;10743;52.160;20.910;2023-08-31T08:23:50;12.05;;;1.90;;
21170;SDS011;10743;52.160;20.910;2023-08-31T08:26:18;5.38;;;2.00;;
21170;SDS011;10743;52.160;20.910;2023-08-31T08:28:45;8.77;;;2.00;;
21170;SDS011;10743;52.160;20.910;2023-08-31T08:31:13;5.25;;;1.80;;
21170;SDS011;10743;52.160;20.910;2023-08-31T08:33:40;7.53;;;2.00;;
21170;SDS011;10743;52.160;20.910;2023-08-31T08:36:07;3.90;;;1.52;;
21170;SDS011;10743;52.160;20.910;2023-08-31T08:38:34;4.78;;;1.50;;
21170;SDS011;10743;52.160;20.910;2023-08-31T08:41:05;4.03;;;1.60;;
21170;SDS011;10743;52.160;20.910;2023-08-31T08:43:36;4.25;;;2.00;;
21170;SDS011;10743;52.160;20.910;2023-08-31T08:46:08;5.32;;;1.70;;
21170;SDS011;10743;52.160;20.910;2023-08-31T08:48:36;2.58;;;1.40;;
21170;SDS011;10743;52.160;20.910;2023-08-31T08:51:04;7.28;;;2.03;;
21170;SDS011;10743;52.160;20.910;2023-08-31T08:53:32;5.25;;;1.55;;
21170;SDS011;10743;52.160;20.910;2023-08-31T08:56:00;4.60;;;1.60;;
21170;SDS011;10743;52.160;20.910;2023-08-31T08:58:28;3.35;;;1.48;;
21170;SDS011;10743;52.160;20.910;2023-08-31T09:00:55;5.13;;;1.77;;
21170;SDS011;10743;52.160;20.910;2023-08-31T09:03:25;5.50;;;1.85;;
21170;SDS011;10743;52.160;20.910;2023-08-31T09:05:52;5.68;;;1.70;;
21170;SDS011;10743;52.160;20.910;2023-08-31T09:08:26;8.10;;;2.13;;
21170;SDS011;10743;52.160;20.910;2023-08-31T09:10:55;5.68;;;1.90;;
21170;SDS011;10743;52.160;20.910;2023-08-31T09:13:28;6.60;;;1.85;;
21170;SDS011;10743;52.160;20.910;2023-08-31T09:15:56;6.32;;;1.90;;
21170;SDS011;10743;52.160;20.910;2023-08-31T09:18:25;6.18;;;1.75;;
21170;SDS011;10743;52.160;20.910;2023-08-31T09:20:58;6.63;;;1.85;;
21170;SDS011;10743;52.160;20.910;2023-08-31T09:23:27;5.85;;;2.10;;
21170;SDS011;10743;52.160;20.910;2023-08-31T09:25:55;6.22;;;1.80;;
21170;SDS011;10743;52.160;20.910;2023-08-31T09:28:23;4.75;;;1.90;;
21170;SDS011;10743;52.160;20.910;2023-08-31T09:31:06;5.40;;;2.03;;
21170;SDS011;10743;52.160;20.910;2023-08-31T09:33:35;5.43;;;2.00;;
21170;SDS011;10743;52.160;20.910;2023-08-31T09:36:03;6.38;;;2.10;;
21170;SDS011;10743;52.160;20.910;2023-08-31T09:38:40;8.35;;;2.05;;
21170;SDS011;10743;52.160;20.910;2023-08-31T09:41:10;7.75;;;2.30;;
21170;SDS011;10743;52.160;20.910;2023-08-31T09:43:37;7.20;;;2.33;;
21170;SDS011;10743;52.160;20.910;2023-08-31T09:46:04;6.25;;;1.80;;
21170;SDS011;10743;52.160;20.910;2023-08-31T09:48:32;4.30;;;1.75;;
21170;SDS011;10743;52.160;20.910;2023-08-31T09:51:00;5.68;;;1.92;;
21170;SDS011;10743;52.160;20.910;2023-08-31T09:53:31;5.38;;;2.38;;
21170;SDS011;10743;52.160;20.910;2023-08-31T09:55:58;6.25;;;2.00;;
21170;SDS011;10743;52.160;20.910;2023-08-31T09:58:26;6.03;;;2.15;;
21170;SDS011;10743;52.160;20.910;2023-08-31T10:00:57;4.93;;;1.98;;
21170;SDS011;10743;52.160;20.910;2023-08-31T10:03:26;5.10;;;2.17;;
21170;SDS011;10743;52.160;20.910;2023-08-31T10:05:53;5.10;;;2.03;;
21170;SDS011;10743;52.160;20.910;2023-08-31T10:08:23;6.05;;;2.15;;
21170;SDS011;10743;52.160;20.910;2023-08-31T10:10:51;6.68;;;2.20;;
21170;SDS011;10743;52.160;20.910;2023-08-31T10:13:19;6.15;;;2.20;;
21170;SDS011;10743;52.160;20.910;2023-08-31T10:15:49;6.82;;;2.08;;
21170;SDS011;10743;52.160;20.910;2023-08-31T10:18:16;5.63;;;2.03;;
21170;SDS011;10743;52.160;20.910;2023-08-31T10:20:44;7.28;;;2.20;;
21170;SDS011;10743;52.160;20.910;2023-08-31T10:23:12;5.80;;;2.10;;
21170;SDS011;10743;52.160;20.910;2023-08-31T10:28:21;5.22;;;2.25;;
21170;SDS011;10743;52.160;20.910;2023-08-31T10:31:00;4.78;;;2.17;;
21170;SDS011;10743;52.160;20.910;2023-08-31T10:34:18;4.95;;;2.15;;
21170;SDS011;10743;52.160;20.910;2023-08-31T10:36:37;7.00;;;2.10;;
21170;SDS011;10743;52.160;20.910;2023-08-31T10:39:16;4.70;;;2.40;;
21170;SDS011;10743;52.160;20.910;2023-08-31T10:41:53;2.65;;;1.98;;
21170;SDS011;10743;52.160;20.910;2023-08-31T10:44:22;4.38;;;2.35;;
21170;SDS011;10743;52.160;20.910;2023-08-31T10:46:52;4.47;;;2.30;;
21170;SDS011;10743;52.160;20.910;2023-08-31T10:49:23;5.40;;;2.45;;
21170;SDS011;10743;52.160;20.910;2023-08-31T10:51:56;4.05;;;2.40;;
21170;SDS011;10743;52.160;20.910;2023-08-31T10:55:03;8.23;;;2.70;;
21170;SDS011;10743;52.160;20.910;2023-08-31T10:57:32;6.60;;;2.53;;
21170;SDS011;10743;52.160;20.910;2023-08-31T11:00:02;3.42;;;2.33;;
21170;SDS011;10743;52.160;20.910;2023-08-31T11:02:35;6.70;;;2.60;;
21170;SDS011;10743;52.160;20.910;2023-08-31T11:05:10;3.78;;;2.42;;
21170;SDS011;10743;52.160;20.910;2023-08-31T11:07:46;4.40;;;2.47;;
21170;SDS011;10743;52.160;20.910;2023-08-31T11:10:18;10.75;;;2.58;;
21170;SDS011;10743;52.160;20.910;2023-08-31T11:12:53;4.00;;;2.28;;
21170;SDS011;10743;52.160;20.910;2023-08-31T11:15:22;4.45;;;2.33;;
21170;SDS011;10743;52.160;20.910;2023-08-31T11:17:56;4.07;;;2.25;;
21170;SDS011;10743;52.160;20.910;2023-08-31T11:20:24;5.25;;;2.53;;
21170;SDS011;10743;52.160;20.910;2023-08-31T11:22:55;8.13;;;2.63;;
21170;SDS011;10743;52.160;20.910;2023-08-31T11:25:23;6.38;;;2.45;;
21170;SDS011;10743;52.160;20.910;2023-08-31T11:28:01;5.05;;;2.35;;
21170;SDS011;10743;52.160;20.910;2023-08-31T11:30:32;5.47;;;2.60;;
21170;SDS011;10743;52.160;20.910;2023-08-31T11:33:04;4.78;;;2.60;;
21170;SDS011;10743;52.160;20.910;2023-08-31T11:35:34;6.38;;;2.70;;
21170;SDS011;10743;52.160;20.910;2023-08-31T11:38:03;4.65;;;2.60;;
21170;SDS011;10743;52.160;20.910;2023-08-31T11:40:30;8.70;;;2.75;;
21170;SDS011;10743;52.160;20.910;2023-08-31T11:42:58;8.65;;;3.13;;
21170;SDS011;10743;52.160;20.910;2023-08-31T11:45:30;3.95;;;2.55;;
21170;SDS011;10743;52.160;20.910;2023-08-31T11:47:58;3.85;;;2.35;;
21170;SDS011;10743;52.160;20.910;2023-08-31T11:50:25;7.28;;;2.63;;
21170;SDS011;10743;52.160;20.910;2023-08-31T11:52:54;6.28;;;2.88;;
21170;SDS011;10743;52.160;20.910;2023-08-31T11:55:21;5.07;;;2.67;;
21170;SDS011;10743;52.160;20.910;2023-08-31T11:57:53;6.38;;;2.83;;
21170;SDS011;10743;52.160;20.910;2023-08-31T12:00:21;5.60;;;2.80;;
21170;SDS011;10743;52.160;20.910;2023-08-31T12:02:55;6.88;;;3.10;;
21170;SDS011;10743;52.160;20.910;2023-08-31T12:05:27;6.13;;;2.90;;
21170;SDS011;10743;52.160;20.910;2023-08-31T12:07:55;5.45;;;2.85;;
21170;SDS011;10743;52.160;20.910;2023-08-31T12:10:25;4.95;;;2.70;;
21170;SDS011;10743;52.160;20.910;2023-08-31T12:12:53;4.70;;;2.50;;
21170;SDS011;10743;52.160;20.910;2023-08-31T12:15:22;3.90;;;2.55;;
21170;SDS011;10743;52.160;20.910;2023-08-31T12:17:49;6.28;;;2.60;;
21170;SDS011;10743;52.160;20.910;2023-08-31T12:20:24;5.60;;;3.03;;
21170;SDS011;10743;52.160;20.910;2023-08-31T12:22:55;5.10;;;2.67;;
21170;SDS011;10743;52.160;20.910;2023-08-31T12:25:22;5.20;;;2.88;;
21170;SDS011;10743;52.160;20.910;2023-08-31T12:27:50;5.82;;;3.20;;
21170;SDS011;10743;52.160;20.910;2023-08-31T12:30:17;5.20;;;2.80;;
21170;SDS011;10743;52.160;20.910;2023-08-31T12:32:44;5.95;;;2.88;;
21170;SDS011;10743;52.160;20.910;2023-08-31T12:35:11;4.60;;;2.92;;
21170;SDS011;10743;52.160;20.910;2023-08-31T12:37:40;6.40;;;2.90;;
21170;SDS011;10743;52.160;20.910;2023-08-31T12:40:07;6.55;;;2.90;;
21170;SDS011;10743;52.160;20.910;2023-08-31T12:42:36;5.88;;;2.78;;
21170;SDS011;10743;52.160;20.910;2023-08-31T12:45:03;5.25;;;2.88;;
21170;SDS011;10743;52.160;20.910;2023-08-31T12:47:32;5.95;;;3.10;;
21170;SDS011;10743;52.160;20.910;2023-08-31T12:50:01;5.78;;;3.83;;
21170;SDS011;10743;52.160;20.910;2023-08-31T12:52:29;6.60;;;3.63;;
21170;SDS011;10743;52.160;20.910;2023-08-31T12:54:56;6.55;;;3.05;;
21170;SDS011;10743;52.160;20.910;2023-08-31T12:57:23;7.38;;;3.10;;
21170;SDS011;10743;52.160;20.910;2023-08-31T12:59:53;5.43;;;2.40;;
21170;SDS011;10743;52.160;20.910;2023-08-31T13:02:20;6.43;;;2.78;;
21170;SDS011;10743;52.160;20.910;2023-08-31T13:04:49;10.23;;;3.70;;
21170;SDS011;10743;52.160;20.910;2023-08-31T13:07:16;7.90;;;3.63;;
21170;SDS011;10743;52.160;20.910;2023-08-31T13:09:43;8.75;;;4.13;;
21170;SDS011;10743;52.160;20.910;2023-08-31T13:12:12;5.90;;;2.80;;
21170;SDS011;10743;52.160;20.910;2023-08-31T13:14:39;7.15;;;3.10;;
21170;SDS011;10743;52.160;20.910;2023-08-31T13:17:06;7.18;;;3.25;;
21170;SDS011;10743;52.160;20.910;2023-08-31T13:19:34;6.10;;;3.15;;
21170;SDS011;10743;52.160;20.910;2023-08-31T13:22:05;8.82;;;3.00;;
21170;SDS011;10743;52.160;20.910;2023-08-31T13:24:47;4.70;;;2.72;;
21170;SDS011;10743;52.160;20.910;2023-08-31T13:27:14;4.45;;;2.67;;
21170;SDS011;10743;52.160;20.910;2023-08-31T13:29:42;6.32;;;2.92;;
21170;SDS011;10743;52.160;20.910;2023-08-31T13:32:10;8.80;;;3.17;;
21170;SDS011;10743;52.160;20.910;2023-08-31T13:34:37;9.40;;;3.10;;
21170;SDS011;10743;52.160;20.910;2023-08-31T13:37:04;6.15;;;2.95;;
21170;SDS011;10743;52.160;20.910;2023-08-31T13:39:33;5.40;;;3.00;;
21170;SDS011;10743;52.160;20.910;2023-08-31T13:42:06;6.95;;;3.33;;
21170;SDS011;10743;52.160;20.910;2023-08-31T13:44:34;6.88;;;2.95;;
21170;SDS011;10743;52.160;20.910;2023-08-31T13:47:01;6.95;;;2.97;;
21170;SDS011;10743;52.160;20.910;2023-08-31T13:49:30;8.77;;;3.17;;
21170;SDS011;10743;52.160;20.910;2023-08-31T13:51:58;7.15;;;3.25;;
21170;SDS011;10743;52.160;20.910;2023-08-31T13:54:26;8.13;;;3.25;;
21170;SDS011;10743;52.160;20.910;2023-08-31T13:56:53;8.07;;;3.10;;
21170;SDS011;10743;52.160;20.910;2023-08-31T13:59:21;10.45;;;3.50;;
21170;SDS011;10743;52.160;20.910;2023-08-31T14:01:48;7.68;;;3.20;;
21170;SDS011;10743;52.160;20.910;2023-08-31T14:04:15;12.05;;;3.33;;
21170;SDS011;10743;52.160;20.910;2023-08-31T14:06:42;8.90;;;2.90;;
21170;SDS011;10743;52.160;20.910;2023-08-31T14:09:09;6.53;;;3.05;;
21170;SDS011;10743;52.160;20.910;2023-08-31T14:11:36;9.40;;;3.30;;
21170;SDS011;10743;52.160;20.910;2023-08-31T14:14:04;6.15;;;2.90;;
21170;SDS011;10743;52.160;20.910;2023-08-31T14:16:35;7.60;;;3.25;;
21170;SDS011;10743;52.160;20.910;2023-08-31T14:19:03;9.65;;;3.63;;
21170;SDS011;10743;52.160;20.910;2023-08-31T14:21:32;10.77;;;3.40;;
21170;SDS011;10743;52.160;20.910;2023-08-31T14:23:59;9.27;;;3.45;;
21170;SDS011;10743;52.160;20.910;2023-08-31T14:26:26;8.45;;;3.60;;
21170;SDS011;10743;52.160;20.910;2023-08-31T14:28:53;16.52;;;4.28;;
21170;SDS011;10743;52.160;20.910;2023-08-31T14:31:21;8.48;;;3.30;;
21170;SDS011;10743;52.160;20.910;2023-08-31T14:33:48;7.97;;;3.35;;
21170;SDS011;10743;52.160;20.910;2023-08-31T14:36:16;7.53;;;3.22;;
21170;SDS011;10743;52.160;20.910;2023-08-31T14:38:44;12.25;;;3.53;;
21170;SDS011;10743;52.160;20.910;2023-08-31T14:41:12;14.68;;;4.13;;
21170;SDS011;10743;52.160;20.910;2023-08-31T14:43:39;9.85;;;3.63;;
21170;SDS011;10743;52.160;20.910;2023-08-31T14:46:06;11.52;;;3.95;;
21170;SDS011;10743;52.160;20.910;2023-08-31T14:48:34;14.15;;;4.43;;
21170;SDS011;10743;52.160;20.910;2023-08-31T14:51:01;13.65;;;3.83;;
21170;SDS011;10743;52.160;20.910;2023-08-31T14:53:28;13.48;;;4.28;;
21170;SDS011;10743;52.160;20.910;2023-08-31T14:55:55;13.07;;;4.57;;
21170;SDS011;10743;52.160;20.910;2023-08-31T14:58:23;10.52;;;4.15;;